This is the latest recevied weather packets stored in our database for station/object W5HKR. If no packets are shown the sender has not sent any weather packets the latest 10 day(s).
| Time | Temp. | Humidity | Pressure | Rain* | Wind** | Luminosity | Snow |
|---|---|---|---|---|---|---|---|
| 1777329999 | 31.67° C | 65% | 980.6 hPa | 0 mm | - | - | - |
| 1777329508 | 18.33° C | 91% | 990.6 hPa | 0 mm | - | - | - |
| 1777329209 | 18.33° C | 91% | 990.6 hPa | 0 mm | - | - | - |
| 1777328909 | 31.67° C | 66% | 980.4 hPa | 0 mm | - | - | - |
| 1777328608 | 31.67° C | 64% | 980.9 hPa | 0 mm | - | - | - |
| 1777328309 | 18.33° C | 91% | 990.6 hPa | 0 mm | - | - | - |
| 1777328009 | 18.33° C | 91% | 990.6 hPa | 0 mm | - | - | - |
| 1777327840 | 18.33° C | 91% | 990.6 hPa | 0 mm | - | - | - |
| 1777327707 | 18.33° C | 91% | 990.6 hPa | 0 mm | - | - | - |
| 1777327407 | 31.67° C | 65% | 980.7 hPa | 0 mm | - | - | - |
| 1777327107 | 18.33° C | 91% | 990.6 hPa | 0 mm | - | - | - |
| 1777326808 | 32.22° C | 63% | 980.8 hPa | 0 mm | - | - | - |
| 1777326759 | 32.22° C | 63% | 981 hPa | 0 mm | - | - | - |
| 1777326509 | 32.22° C | 62% | 980.9 hPa | 0 mm | - | - | - |
| 1777326208 | 32.78° C | 63% | 980.8 hPa | 0 mm | - | - | - |
| 1777325909 | 18.33° C | 91% | 990.6 hPa | 0 mm | - | - | - |
| 1777325679 | 32.78° C | 63% | 981.2 hPa | 0 mm | - | - | - |
| 1777325607 | 32.22° C | 65% | 981 hPa | 0 mm | - | - | - |
| 1777325307 | 31.11° C | 67% | 981.2 hPa | 0 mm | - | - | - |
| 1777325009 | 18.33° C | 91% | 990.6 hPa | 0 mm | - | - | - |
| 1777324708 | 18.33° C | 91% | 990.6 hPa | 0 mm | - | - | - |
| 1777324600 | 18.33° C | 91% | 990.6 hPa | 0 mm | - | - | - |
| 1777324409 | 18.33° C | 91% | 990.6 hPa | 0 mm | - | - | - |
| 1777324107 | 18.33° C | 91% | 990.6 hPa | 0 mm | - | - | - |
| 1777323808 | 18.33° C | 91% | 990.6 hPa | 0 mm | - | - | - |
* Rain latest hour (hover to see other rain measurements)
** Current wind speed in m/s (hover to see current wind gust speed)